createdAt,value
2024-03-01T00:17:55.628Z,94595.72
2024-03-01T00:18:53.317Z,94597.06
2024-03-01T00:19:56.065Z,94586.72
2024-03-01T00:20:53.634Z,94564.38
2024-03-01T00:23:04.179Z,94578.50
2024-03-01T00:24:01.856Z,94578.25
2024-03-01T00:24:59.406Z,94573.28
2024-03-01T00:27:04.614Z,94572.78
2024-03-01T00:28:07.719Z,94514.63
2024-03-01T00:29:08.318Z,94570.19
2024-03-01T00:30:39.057Z,94562.47
2024-03-01T00:44:41.308Z,94513.72
2024-03-01T00:45:39.144Z,94480.38
2024-03-01T00:46:37.676Z,94526.34
2024-03-01T00:47:35.314Z,94522.88
2024-03-01T00:48:35.708Z,94509.84
2024-03-01T00:49:33.268Z,94541.00
2024-03-01T00:50:31.404Z,94522.31
2024-03-01T00:51:28.950Z,94519.16
2024-03-01T00:52:27.432Z,94523.88
2024-03-01T00:53:24.961Z,94516.94
2024-03-01T00:54:23.114Z,94493.91
2024-03-01T00:55:20.555Z,94508.56
2024-03-01T00:56:18.140Z,94531.38
2024-03-01T00:57:16.483Z,94527.94
2024-03-01T00:58:16.530Z,94528.97
2024-03-01T00:59:14.149Z,94523.50
2024-03-01T01:14:44.574Z,94488.28
2024-03-01T01:15:47.785Z,94458.53
2024-03-01T01:16:45.811Z,94486.97
2024-03-01T01:17:43.398Z,94482.41
2024-03-01T01:18:41.435Z,94379.78
2024-03-01T01:19:39.308Z,94487.34
2024-03-01T01:20:37.452Z,94495.44
2024-03-01T01:21:35.099Z,94469.25
2024-03-01T01:22:32.639Z,94492.53
2024-03-01T01:23:30.200Z,94491.25
2024-03-01T01:24:27.953Z,94504.03
2024-03-01T01:25:28.962Z,94496.44
2024-03-01T01:26:27.576Z,94486.84
2024-03-01T01:27:25.410Z,94485.72
2024-03-01T01:28:22.997Z,94483.97
2024-03-01T01:29:20.516Z,94436.75
2024-03-01T01:44:38.748Z,94435.66
2024-03-01T01:45:36.706Z,94447.06
2024-03-01T01:46:35.747Z,94433.03
2024-03-01T01:47:34.899Z,94384.03
2024-03-01T01:48:32.710Z,94444.13
2024-03-01T01:49:31.526Z,94444.13
2024-03-01T01:50:31.118Z,94444.84
2024-03-01T01:51:31.530Z,94406.78
2024-03-01T01:52:29.213Z,94435.13
2024-03-01T01:53:27.857Z,94431.03
2024-03-01T01:54:29.903Z,94426.34
2024-03-01T01:55:27.755Z,94398.25
2024-03-01T01:56:27.125Z,94396.53
2024-03-01T01:57:25.017Z,94415.38
2024-03-01T01:58:23.710Z,94395.56
2024-03-01T01:59:21.475Z,94441.78
2024-03-01T02:08:50.717Z,94404.75
2024-03-01T02:22:23.078Z,94400.09
2024-03-01T02:23:25.902Z,94400.66
2024-03-01T02:24:24.488Z,94387.78
2024-03-01T02:25:21.852Z,94415.75
2024-03-01T02:26:19.376Z,94413.78
2024-03-01T02:27:19.902Z,94398.19
2024-03-01T02:28:17.488Z,94412.25
2024-03-01T02:29:15.090Z,94398.09
2024-03-01T02:48:53.803Z,94400.81
2024-03-01T02:49:51.916Z,94405.56
2024-03-01T02:51:29.185Z,94398.16
2024-03-01T02:52:27.168Z,94391.22
2024-03-01T02:53:25.110Z,94375.06
2024-03-01T02:54:22.848Z,94394.75
2024-03-01T02:55:23.109Z,94395.66
2024-03-01T02:56:21.028Z,94400.91
2024-03-01T02:57:18.884Z,94364.75
2024-03-01T02:58:16.529Z,94406.94
2024-03-01T02:59:14.488Z,94381.88
2024-03-01T03:00:49.419Z,94394.28
2024-03-01T03:44:37.032Z,94375.97
2024-03-01T03:45:37.642Z,94378.75
2024-03-01T03:46:37.731Z,94368.97
2024-03-01T03:47:35.531Z,94364.00
2024-03-01T03:48:34.797Z,94367.50
2024-03-01T03:51:28.890Z,94344.88
2024-03-01T03:52:33.139Z,94362.59
2024-03-01T03:53:33.096Z,94305.53
2024-03-01T03:54:33.917Z,94368.00
2024-03-01T03:55:57.892Z,94362.47
2024-03-01T03:57:07.827Z,94355.59
2024-03-01T04:14:47.675Z,94365.97
2024-03-01T04:15:45.239Z,94362.03
2024-03-01T04:16:42.834Z,94351.25
2024-03-01T04:17:40.344Z,94346.72
2024-03-01T04:18:41.467Z,94343.31
2024-03-01T04:19:40.014Z,94330.13
2024-03-01T04:20:38.196Z,94338.16
2024-03-01T04:21:39.041Z,94334.25
2024-03-01T04:22:37.625Z,94323.34
2024-03-01T04:23:35.561Z,94329.25
2024-03-01T04:24:59.016Z,94337.25
2024-03-01T04:25:56.973Z,94339.88
2024-03-01T04:27:05.276Z,94335.22
2024-03-01T04:28:06.436Z,94342.06
2024-03-01T04:29:04.858Z,94344.94
2024-03-01T04:46:34.406Z,94350.31
2024-03-01T04:47:32.176Z,94336.69
2024-03-01T04:48:32.963Z,94328.81
2024-03-01T04:49:31.569Z,94344.47
2024-03-01T04:50:29.489Z,94348.78
2024-03-01T04:51:26.937Z,94348.25
2024-03-01T04:52:27.799Z,94360.47
2024-03-01T04:53:25.730Z,94330.50
2024-03-01T04:54:23.278Z,94370.38
2024-03-01T04:55:21.195Z,94363.53
2024-03-01T04:56:21.550Z,94266.72
2024-03-01T04:57:19.094Z,94357.75
2024-03-01T04:58:16.460Z,94366.00
2024-03-01T04:59:15.566Z,94363.88
2024-03-01T05:01:06.187Z,94361.09
2024-03-01T05:41:49.749Z,94395.59
2024-03-01T05:43:00.964Z,94354.09
2024-03-01T05:44:57.725Z,94396.31
2024-03-01T05:45:59.363Z,94418.28
2024-03-01T05:47:14.787Z,94408.25
2024-03-01T05:48:14.521Z,94403.03
2024-03-01T05:49:13.169Z,94402.59
2024-03-01T05:50:16.007Z,94399.16
2024-03-01T05:51:14.244Z,94410.41
2024-03-01T05:52:27.174Z,94394.28
2024-03-01T05:53:31.006Z,94392.81
2024-03-01T05:54:31.345Z,94371.09
2024-03-01T05:55:34.594Z,94405.50
2024-03-01T05:56:32.130Z,94357.91
2024-03-01T05:57:37.065Z,94395.47
2024-03-01T05:58:44.706Z,94362.03
2024-03-01T06:00:33.301Z,94392.22
2024-03-01T06:19:01.174Z,94368.06
2024-03-01T06:20:09.090Z,94374.06
2024-03-01T06:21:11.213Z,94378.91
2024-03-01T06:22:18.280Z,94380.50
2024-03-01T06:23:24.822Z,94374.06
2024-03-01T06:24:33.234Z,94369.44
2024-03-01T06:25:33.559Z,94350.09
2024-03-01T06:26:31.101Z,94315.00
2024-03-01T06:27:28.504Z,94327.63
2024-03-01T06:28:31.254Z,94339.44
2024-03-01T07:03:43.422Z,94403.66
2024-03-01T07:04:54.749Z,94374.00
2024-03-01T07:07:48.777Z,94387.94
2024-03-01T07:18:51.226Z,94371.63
2024-03-01T07:19:48.762Z,94293.50
2024-03-01T07:21:02.098Z,94328.88
2024-03-01T07:22:09.527Z,94368.38
2024-03-01T07:23:21.829Z,94370.56
2024-03-01T07:24:33.223Z,94363.00
2024-03-01T07:27:16.865Z,94364.31
2024-03-01T07:28:31.729Z,94358.22
2024-03-01T07:31:02.072Z,94310.94
2024-03-01T07:32:00.812Z,94357.44
2024-03-01T07:34:58.713Z,94374.34
2024-03-01T07:36:16.396Z,94352.00
2024-03-01T07:37:16.537Z,94391.72
2024-03-01T07:38:16.425Z,94371.03
2024-03-01T07:39:42.246Z,94392.09
2024-03-01T07:44:39.410Z,94377.00
2024-03-01T07:45:49.084Z,94381.09
2024-03-01T07:47:09.340Z,94384.22
2024-03-01T07:48:35.446Z,94386.16
2024-03-01T07:50:07.516Z,94388.16
2024-03-01T07:51:41.422Z,94380.47
2024-03-01T07:52:45.733Z,94390.41
2024-03-01T07:53:50.731Z,94383.66
2024-03-01T07:55:20.061Z,94383.88
2024-03-01T07:57:06.229Z,94406.31
2024-03-01T07:58:20.429Z,94391.91
2024-03-01T07:59:21.147Z,94392.69
2024-03-01T08:00:18.606Z,94423.22
2024-03-01T08:01:18.705Z,94411.56
2024-03-01T08:02:16.152Z,94417.50
2024-03-01T08:03:16.105Z,94392.09
2024-03-01T08:40:33.391Z,94389.50
2024-03-01T08:45:38.005Z,94414.53
2024-03-01T08:46:47.797Z,94403.72
2024-03-01T08:48:05.439Z,94401.38
2024-03-01T08:51:19.253Z,94404.75
2024-03-01T08:52:35.416Z,94396.09
2024-03-01T08:55:28.495Z,94405.25
2024-03-01T09:01:36.570Z,94420.13
2024-03-01T09:18:26.134Z,94411.38
2024-03-01T09:19:50.224Z,94420.13
2024-03-01T09:20:51.456Z,94399.50
2024-03-01T09:21:57.570Z,94394.38
2024-03-01T09:23:37.410Z,94411.97
2024-03-01T10:20:16.735Z,94411.34
2024-03-01T10:43:32.787Z,94383.53
2024-03-01T10:57:49.704Z,94334.34
2024-03-01T11:07:43.020Z,94349.91
2024-03-01T11:27:37.070Z,94340.03
2024-03-01T11:30:11.968Z,94330.44
2024-03-01T11:33:11.002Z,94326.41
2024-03-01T11:47:18.675Z,94297.91
2024-03-01T11:49:13.788Z,94310.06
2024-03-01T11:51:24.643Z,94303.31
2024-03-01T11:52:59.105Z,94299.66
2024-03-01T12:08:04.655Z,94281.09
2024-03-01T12:13:00.648Z,94287.25
2024-03-01T12:18:28.974Z,94277.44
2024-03-01T12:20:31.616Z,94291.16
2024-03-01T12:22:13.926Z,94286.53
2024-03-01T12:23:59.619Z,94240.88
2024-03-01T12:25:05.470Z,94261.91
2024-03-01T12:33:13.492Z,94251.16
2024-03-01T12:34:40.132Z,94251.94
2024-03-01T12:42:09.176Z,94260.84
2024-03-01T12:44:40.623Z,94257.97
2024-03-01T12:46:24.239Z,94222.59
2024-03-01T12:48:59.519Z,94276.41
2024-03-01T12:50:24.336Z,94265.63
2024-03-01T12:54:44.340Z,94254.56
2024-03-01T12:56:02.365Z,94257.75
2024-03-01T12:58:03.894Z,94244.13
2024-03-01T12:59:42.952Z,94166.25
2024-03-01T13:16:13.359Z,94235.59
2024-03-01T13:17:33.698Z,94242.09
2024-03-01T13:18:56.351Z,94243.25
2024-03-01T13:20:27.196Z,94254.56
2024-03-01T13:21:37.365Z,94249.84
2024-03-01T13:23:04.601Z,94239.09
2024-03-01T13:24:29.490Z,94245.22
2024-03-01T13:26:04.181Z,94229.88
2024-03-01T13:27:44.146Z,94236.47
2024-03-01T13:29:27.679Z,94219.50
2024-03-01T13:34:43.686Z,94219.38
2024-03-01T14:22:01.454Z,94219.63
2024-03-01T14:23:55.103Z,94208.34
2024-03-01T14:29:12.514Z,94211.59
2024-03-01T14:47:21.045Z,94223.56
2024-03-01T14:48:54.843Z,94228.59
2024-03-01T14:50:06.111Z,94229.16
2024-03-01T14:51:14.111Z,94185.03
2024-03-01T14:52:18.905Z,94226.13
2024-03-01T14:53:41.295Z,94226.94
2024-03-01T14:54:48.183Z,94231.59
2024-03-01T14:55:46.440Z,94226.13
2024-03-01T14:56:50.761Z,94238.28
2024-03-01T14:58:09.158Z,94224.81
2024-03-01T15:14:50.723Z,94223.28
2024-03-01T15:15:50.240Z,94232.88
2024-03-01T15:17:28.258Z,94240.28
2024-03-01T15:18:31.206Z,94239.00
2024-03-01T15:19:44.900Z,94210.31
2024-03-01T15:20:51.287Z,94205.78
2024-03-01T15:22:13.525Z,94238.38
2024-03-01T15:23:15.339Z,94239.56
2024-03-01T15:24:20.569Z,94194.91
2024-03-01T15:25:47.697Z,94240.72
2024-03-01T15:26:55.272Z,94229.13
2024-03-01T15:27:53.816Z,94202.47
2024-03-01T15:29:00.045Z,94226.66
2024-03-01T15:32:18.501Z,94243.78
2024-03-01T15:33:17.223Z,94240.72
2024-03-01T15:53:15.448Z,94263.75
2024-03-01T15:54:14.732Z,94275.53
2024-03-01T15:55:12.324Z,94267.78
2024-03-01T15:56:42.122Z,94270.59
2024-03-01T15:57:46.531Z,94268.94
2024-03-01T15:58:53.954Z,94272.31
2024-03-01T16:09:13.680Z,94229.44
2024-03-01T16:10:29.445Z,94209.31
2024-03-01T16:16:02.147Z,94274.22
2024-03-01T16:18:25.595Z,94275.19
2024-03-01T16:19:33.932Z,94249.34
2024-03-01T16:20:32.909Z,94230.91
2024-03-01T16:21:36.666Z,94244.75
2024-03-01T16:22:37.902Z,94217.81
2024-03-01T16:23:46.812Z,94267.03
2024-03-01T16:24:52.968Z,94266.81
2024-03-01T16:25:53.471Z,94262.84
2024-03-01T16:26:50.879Z,94262.41
2024-03-01T16:27:48.549Z,94237.16
2024-03-01T16:28:53.158Z,94266.53
2024-03-01T16:33:12.518Z,94267.34
2024-03-01T16:45:46.543Z,94241.25
2024-03-01T16:49:18.699Z,94224.84
2024-03-01T16:50:20.382Z,94254.31
2024-03-01T16:51:39.781Z,94253.59
2024-03-01T16:52:38.434Z,94243.34
2024-03-01T16:53:41.655Z,94268.03
2024-03-01T16:55:36.082Z,94272.69
2024-03-01T17:07:50.559Z,94286.47
2024-03-01T17:09:05.131Z,94284.09
2024-03-01T17:10:24.570Z,94276.44
2024-03-01T17:11:59.237Z,94267.63
2024-03-01T17:16:21.485Z,94277.03
2024-03-01T17:18:33.827Z,94268.34
2024-03-01T17:20:19.971Z,94273.94
2024-03-01T17:26:27.490Z,94261.28
2024-03-01T17:31:39.151Z,94236.63
2024-03-01T17:32:42.496Z,94259.06
2024-03-01T17:33:59.837Z,94265.34
2024-03-01T17:35:01.002Z,94261.31
2024-03-01T17:35:58.400Z,94214.81
2024-03-01T17:37:49.364Z,94231.06
2024-03-01T17:45:02.643Z,94248.88
2024-03-01T17:46:11.528Z,94250.44
2024-03-01T17:47:15.567Z,94254.16
2024-03-01T17:48:13.317Z,94239.38
2024-03-01T17:49:46.305Z,94248.59
2024-03-01T17:50:48.343Z,94241.91
2024-03-01T17:51:46.031Z,94220.09
2024-03-01T17:52:53.110Z,94256.56
2024-03-01T17:53:53.265Z,94217.47
2024-03-01T17:54:57.161Z,94252.78
2024-03-01T18:07:44.668Z,94243.50
2024-03-01T18:09:06.811Z,94228.53
2024-03-01T18:10:04.611Z,94232.19
2024-03-01T18:11:01.840Z,94214.63
2024-03-01T18:12:39.304Z,94244.56
2024-03-01T18:14:38.887Z,94251.19
2024-03-01T18:16:33.193Z,94245.13
2024-03-01T18:17:39.795Z,94249.13
2024-03-01T18:18:42.508Z,94234.59
2024-03-01T18:19:40.124Z,94242.69
2024-03-01T18:20:53.078Z,94229.66
2024-03-01T18:21:53.877Z,94230.81
2024-03-01T18:24:19.511Z,94224.88
2024-03-01T18:25:32.444Z,94223.25
2024-03-01T18:26:32.822Z,94230.13
2024-03-01T18:27:33.365Z,94225.78
2024-03-01T18:28:30.709Z,94185.22
2024-03-01T18:33:09.302Z,94232.88
2024-03-01T18:40:26.278Z,94234.81
2024-03-01T18:41:39.206Z,94231.47
2024-03-01T18:43:16.236Z,94233.19
2024-03-01T18:44:41.146Z,94229.47
2024-03-01T18:45:48.937Z,94228.53
2024-03-01T18:46:50.087Z,94210.94
2024-03-01T18:48:02.619Z,94203.06
2024-03-01T18:49:42.908Z,94218.94
2024-03-01T18:51:40.891Z,94220.41
2024-03-01T18:53:24.107Z,94199.63
2024-03-01T18:54:42.441Z,94210.69
2024-03-01T18:55:47.850Z,94215.66
2024-03-01T18:56:54.432Z,94213.47
2024-03-01T18:57:58.720Z,94213.91
2024-03-01T18:58:59.597Z,94202.50
2024-03-01T19:00:00.351Z,94223.63
2024-03-01T19:01:47.669Z,94208.66
2024-03-01T19:02:46.240Z,94199.97
2024-03-01T19:04:41.665Z,94203.16
2024-03-01T19:14:24.637Z,94205.19
2024-03-01T19:15:28.152Z,94178.59
2024-03-01T19:16:33.117Z,94213.09
2024-03-01T19:18:11.539Z,94206.72
2024-03-01T19:19:09.534Z,94204.78
2024-03-01T19:20:08.628Z,94183.81
2024-03-01T19:22:40.840Z,94168.78
2024-03-01T19:25:18.991Z,94211.13
2024-03-01T19:26:24.738Z,94219.03
2024-03-01T19:27:52.501Z,94210.91
2024-03-01T19:29:00.484Z,94214.00
2024-03-01T19:49:44.479Z,94238.50
2024-03-01T19:53:34.255Z,94213.03
2024-03-01T19:55:05.217Z,94238.72
2024-03-01T19:56:25.496Z,94231.41
2024-03-01T19:57:32.543Z,94225.47
2024-03-01T19:58:32.985Z,94229.91
2024-03-01T20:03:15.272Z,94237.69
2024-03-01T20:04:39.824Z,94230.81
2024-03-01T20:07:30.275Z,94220.09
2024-03-01T20:09:51.155Z,94217.59
2024-03-01T20:11:36.514Z,94217.13
2024-03-01T20:15:09.211Z,94214.03
2024-03-01T20:16:17.011Z,94210.78
2024-03-01T20:17:22.234Z,94207.69
2024-03-01T20:18:30.809Z,94206.00
2024-03-01T20:20:10.370Z,94184.41
2024-03-01T20:21:28.319Z,94217.91
2024-03-01T20:22:42.899Z,94210.47
2024-03-01T20:23:50.237Z,94210.56
2024-03-01T20:24:54.342Z,94217.53
2024-03-01T20:27:42.301Z,94195.28
2024-03-01T20:28:46.684Z,94222.16
2024-03-01T20:45:10.142Z,94214.50
2024-03-01T20:46:22.265Z,94207.50
2024-03-01T20:47:46.058Z,94207.50
2024-03-01T20:50:51.032Z,94205.69
2024-03-01T20:52:01.285Z,94206.03
2024-03-01T20:53:27.192Z,94196.22
2024-03-01T20:54:42.431Z,94202.03
2024-03-01T20:55:52.774Z,94202.81
2024-03-01T20:57:09.409Z,94199.75
2024-03-01T20:58:11.808Z,94198.16
2024-03-01T21:16:53.709Z,94181.19
2024-03-01T21:18:10.504Z,94176.84
2024-03-01T21:20:58.399Z,94178.00
2024-03-01T21:23:17.167Z,94185.03
2024-03-01T21:24:30.272Z,94184.03
2024-03-01T21:25:39.199Z,94176.25
2024-03-01T21:26:45.747Z,94174.31
2024-03-01T21:27:56.285Z,94165.41
2024-03-01T21:45:49.013Z,94159.59
2024-03-01T21:48:31.980Z,94161.06
2024-03-01T21:49:36.404Z,94158.69
2024-03-01T21:50:56.347Z,94155.50
2024-03-01T21:52:01.795Z,94151.25
2024-03-01T21:53:11.345Z,94146.00
2024-03-01T21:54:30.731Z,94142.34
2024-03-01T21:55:42.006Z,94136.03
2024-03-01T21:56:54.866Z,94134.91
2024-03-01T21:58:12.488Z,94128.16
2024-03-01T21:59:20.589Z,94039.66
2024-03-01T22:15:02.075Z,94132.97
2024-03-01T22:17:16.315Z,94132.50
2024-03-01T22:18:14.461Z,94131.03
2024-03-01T22:19:15.500Z,94132.41
2024-03-01T22:20:19.205Z,94123.16
2024-03-01T22:22:09.805Z,94129.53
2024-03-01T22:24:57.870Z,94123.50
2024-03-01T22:25:59.065Z,94118.00
2024-03-01T22:27:00.518Z,94131.72
2024-03-01T22:28:28.371Z,94128.28
2024-03-01T23:18:55.991Z,94107.16
2024-03-01T23:22:48.617Z,94069.00
2024-03-01T23:24:05.213Z,94108.88
2024-03-01T23:25:17.385Z,94101.22
2024-03-01T23:26:25.021Z,94107.41
2024-03-01T23:27:29.638Z,94104.53
2024-03-01T23:28:30.643Z,94103.06
2024-03-01T23:29:59.707Z,94100.31
2024-03-01T23:45:47.478Z,94104.66
2024-03-01T23:47:10.265Z,94113.78
2024-03-01T23:48:20.072Z,94118.69
2024-03-01T23:49:34.688Z,94115.97
2024-03-01T23:50:43.250Z,94116.53
2024-03-01T23:52:00.225Z,94120.63
2024-03-01T23:55:43.598Z,94111.50
2024-03-01T23:56:57.107Z,94114.69
